-> Other stations

1455

Speed(max): 6.5(10.8)knots
Direction:272° ( W)
Temperature: 34.8°C
Arrived: 2026-08-31 11:13:08 CEST

Past data:
hh:mmknots
Dir (°)
°C
11:11 5.4 8.6 W(265) 35.0
11:09 7 11.3 SW(217) 34.7
11:07 5.4 8.6 SW(225) 35.5
11:05 5.4 7.6 SW(216) 35.6
11:03 5.4 7.6 WSW(247) 35.1
11:01 4.3 7 WSW(256) 35.2
10:59 5.4 8.1 WNW(287) 35.2
10:57 4.9 7.6 W(277) 34.8
10:55 3.8 5.4 W(273) 35.3
10:53 1.6 4.9 NNW(332) 35.2
10:51 1.6 2.7 NE(34) 34.7
10:49 2.7 3.8 NE(37) 33.3
10:47 3.2 4.3 NNE(32) 32.8
10:45 2.2 2.7 NNE(32) 33.1
15 min. averages:
hh:mmknots
Dir (°)
°C
11:00 3.2 8.1 NNW(346) 34.3
10:45 3.8 7.6 NE(42) 33.0
10:30 3.2 7 ENE(73) 32.4
10:15 3.8 5.9 ENE(61) 31.7
10:00 3.8 5.4 ENE(58) 31.4
09:45 2.7 4.9 ENE(58) 31.5
09:30 2.7 4.9 ENE(64) 31.4
09:15 3.2 5.9 N(358) 31.0
09:00 3.2 5.9 WNW(300) 31.6
08:45 2.2 4.9 NW(309) 32.4
08:30 0 0 ESE(104) 33.5
08:15 0 0 ESE(105) 31.1
08:00 0 0 ESE(104) 30.5
07:45 0 1.1 SE(125) 28.9
07:30 0 1.6 WSW(255) 26.1
Stations at HR:
1455
-> Other regions

Desktop view
Data provided by Holfuy.
© Holfuy Weather 2026